Time;durP1;ratioP1;P1;durP2;ratioP2;P2;SDS_P1;SDS_P2;PMS_P1;PMS_P2;Temp;Humidity;BMP_temperature;BMP_pressure;BME280_temperature;BME280_humidity;BME280_pressure;Samples;Min_cycle;Max_cycle;Signal;HPM_P1;HPM_P2
2023/08/03 00:00:08;;;;;;;6.10;1.20;;;;;;;-145.50;100.00;65435.88;4969889;28;20126;-70
2023/08/03 00:02:35;;;;;;;2.35;0.90;;;;;;;-145.50;100.00;65435.88;4985043;28;20487;-69
2023/08/03 00:05:03;;;;;;;3.55;1.20;;;;;;;-145.50;100.00;65435.88;4973329;28;20061;-69
2023/08/03 00:07:30;;;;;;;2.05;0.85;;;;;;;-145.50;100.00;65435.88;4979534;28;20082;-69
2023/08/03 00:09:56;;;;;;;5.18;1.17;;;;;;;-145.50;100.00;65435.88;4972591;28;20054;-70
2023/08/03 00:12:23;;;;;;;3.13;0.98;;;;;;;-145.50;100.00;65435.88;4981240;28;20121;-70
2023/08/03 00:14:50;;;;;;;2.28;0.80;;;;;;;-145.50;100.00;65435.88;4986087;28;20479;-70
2023/08/03 00:17:16;;;;;;;6.65;1.60;;;;;;;-145.50;100.00;65435.88;4975520;28;20086;-70
2023/08/03 00:19:43;;;;;;;3.55;1.35;;;;;;;-145.50;100.00;65435.88;4963109;28;20162;-70
2023/08/03 00:22:10;;;;;;;2.40;1.10;;;;;;;-145.50;100.00;65435.88;4981070;28;20081;-70
2023/08/03 00:24:36;;;;;;;5.93;1.30;;;;;;;-145.50;100.00;65435.88;4985260;28;20104;-70
2023/08/03 00:27:03;;;;;;;2.95;1.10;;;;;;;-145.50;100.00;65435.88;4978777;28;20089;-71
2023/08/03 00:29:29;;;;;;;4.50;1.20;;;;;;;-145.50;100.00;65435.88;4979677;28;20301;-72
2023/08/03 00:31:56;;;;;;;1.40;1.20;;;;;;;-145.50;100.00;65435.88;4967402;28;20055;-71
2023/08/03 00:34:23;;;;;;;3.10;1.08;;;;;;;-145.50;100.00;65435.88;4982045;28;20069;-71
2023/08/03 00:36:49;;;;;;;4.75;1.38;;;;;;;-145.50;100.00;65435.88;4971629;28;20058;-71
2023/08/03 00:39:15;;;;;;;4.95;1.33;;;;;;;-145.50;100.00;65435.88;4970574;28;20052;-71
2023/08/03 00:41:42;;;;;;;2.47;1.10;;;;;;;-145.50;100.00;65435.88;4987032;28;20396;-71
2023/08/03 00:44:09;;;;;;;4.40;1.63;;;;;;;-145.50;100.00;65435.88;4992044;28;20752;-71
2023/08/03 00:46:35;;;;;;;3.53;1.40;;;;;;;-145.50;100.00;65435.88;4979116;28;20404;-70
2023/08/03 00:49:02;;;;;;;2.28;1.30;;;;;;;-145.50;100.00;65435.88;4968869;28;20137;-71
2023/08/03 00:51:29;;;;;;;4.30;1.70;;;;;;;-145.50;100.00;65435.88;4984226;28;20046;-71
2023/08/03 00:53:55;;;;;;;5.47;1.75;;;;;;;-145.50;100.00;65435.88;4992940;28;20058;-70
2023/08/03 00:56:22;;;;;;;6.05;1.90;;;;;;;-145.50;100.00;65435.88;4981248;28;20113;-69
2023/08/03 00:58:48;;;;;;;5.13;1.95;;;;;;;-145.50;100.00;65435.88;4987856;28;20050;-70
2023/08/03 01:01:15;;;;;;;7.15;2.58;;;;;;;-145.50;100.00;65435.88;4991237;28;20054;-69
2023/08/03 01:03:42;;;;;;;8.18;2.80;;;;;;;-145.50;100.00;65435.88;4979004;28;20050;-69
2023/08/03 01:06:08;;;;;;;7.75;2.88;;;;;;;-145.50;100.00;65435.88;4994742;28;20057;-69
2023/08/03 01:08:34;;;;;;;4.80;2.40;;;;;;;-145.50;100.00;65435.88;4996817;28;20156;-69
2023/08/03 01:11:01;;;;;;;6.93;3.10;;;;;;;-145.50;100.00;65435.88;4984947;28;20089;-69
2023/08/03 01:13:27;;;;;;;9.02;3.13;;;;;;;-145.50;100.00;65435.88;4986572;28;20115;-69
2023/08/03 01:15:54;;;;;;;5.32;2.70;;;;;;;-145.50;100.00;65435.88;4991415;28;20086;-68
2023/08/03 01:18:21;;;;;;;4.53;2.78;;;;;;;-145.50;100.00;65435.88;4990360;28;20400;-68
2023/08/03 01:20:47;;;;;;;6.70;2.90;;;;;;;-145.50;100.00;65435.88;4969919;28;20096;-69
2023/08/03 01:23:14;;;;;;;8.50;2.78;;;;;;;-145.50;100.00;65435.88;4996974;28;20494;-69
2023/08/03 01:25:41;;;;;;;8.50;3.50;;;;;;;-145.50;100.00;65435.88;4959146;28;20050;-70
2023/08/03 01:28:07;;;;;;;9.05;3.20;;;;;;;-145.50;100.00;65435.88;4988643;28;20181;-70
2023/08/03 01:30:34;;;;;;;8.15;3.00;;;;;;;-145.50;100.00;65435.88;4987990;28;20050;-70
2023/08/03 01:33:01;;;;;;;7.70;2.90;;;;;;;-145.50;100.00;65435.88;4994115;28;20085;-70
2023/08/03 01:35:27;;;;;;;5.80;2.95;;;;;;;-145.50;100.00;65435.88;4969203;28;20070;-70
2023/08/03 01:37:54;;;;;;;7.70;2.40;;;;;;;-145.50;100.00;65435.88;4980896;28;20114;-70
2023/08/03 01:40:20;;;;;;;10.23;3.00;;;;;;;-145.50;100.00;65435.88;4984961;28;20128;-69
2023/08/03 01:42:47;;;;;;;7.40;2.45;;;;;;;-145.50;100.00;65435.88;4990118;28;20467;-69
2023/08/03 01:45:13;;;;;;;6.32;2.92;;;;;;;-145.50;100.00;65435.88;5001564;28;20066;-70
2023/08/03 01:47:40;;;;;;;9.48;3.22;;;;;;;-145.50;100.00;65435.88;4970572;28;20560;-69
2023/08/03 01:50:07;;;;;;;9.57;3.42;;;;;;;-145.50;100.00;65435.88;4992037;28;20057;-68
2023/08/03 01:52:33;;;;;;;11.73;4.07;;;;;;;-145.50;100.00;65435.88;4960365;28;20062;-69
2023/08/03 01:54:59;;;;;;;7.25;3.42;;;;;;;-145.50;100.00;65435.88;4961000;28;20065;-70
2023/08/03 01:57:26;;;;;;;7.13;3.17;;;;;;;-145.50;100.00;65435.88;5000213;28;20049;-69
2023/08/03 01:59:52;;;;;;;9.38;3.58;;;;;;;-145.50;100.00;65435.88;4992879;28;20049;-69
2023/08/03 02:02:19;;;;;;;9.55;3.00;;;;;;;-145.50;100.00;65435.88;4990010;28;20429;-71
2023/08/03 02:04:45;;;;;;;10.32;3.38;;;;;;;-145.50;100.00;65435.88;4979108;28;20708;-71
2023/08/03 02:07:16;;;;;;;12.73;3.00;;;;;;;-145.50;100.00;65435.88;4997431;28;20053;-70
2023/08/03 02:09:43;;;;;;;7.85;2.90;;;;;;;-145.50;100.00;65435.88;4990471;28;20479;-70
2023/08/03 02:12:09;;;;;;;18.45;3.45;;;;;;;-145.50;100.00;65435.88;4985144;28;20124;-70
2023/08/03 02:14:36;;;;;;;9.13;3.15;;;;;;;-145.50;100.00;65435.88;5001683;28;20054;-71
2023/08/03 02:17:02;;;;;;;14.18;3.65;;;;;;;-145.50;100.00;65435.88;4962595;28;20104;-72
2023/08/03 02:19:29;;;;;;;11.23;3.40;;;;;;;-145.50;100.00;65435.88;4976302;28;20053;-71
2023/08/03 02:21:56;;;;;;;10.98;2.90;;;;;;;-145.50;100.00;65435.88;4972635;28;20077;-72
2023/08/03 02:24:22;;;;;;;6.85;3.00;;;;;;;-145.50;100.00;65435.88;4982233;28;20060;-72
2023/08/03 02:26:49;;;;;;;8.00;3.17;;;;;;;-145.50;100.00;65435.88;4984321;28;20061;-72
2023/08/03 02:29:15;;;;;;;8.45;3.22;;;;;;;-145.50;100.00;65435.88;4982741;28;20404;-71
2023/08/03 02:31:42;;;;;;;8.85;3.45;;;;;;;-145.50;100.00;65435.88;4993314;28;20048;-71
2023/08/03 02:34:09;;;;;;;7.80;3.33;;;;;;;-145.50;100.00;65435.88;4970174;28;20053;-71
2023/08/03 02:36:35;;;;;;;10.02;3.42;;;;;;;-145.50;100.00;65435.88;4989453;28;20054;-72
2023/08/03 02:39:02;;;;;;;9.18;3.55;;;;;;;-145.50;100.00;65435.88;4983254;28;20054;-72
2023/08/03 02:41:31;;;;;;;10.10;3.80;;;;;;;-145.50;100.00;65435.88;4991541;28;20078;-72
2023/08/03 02:43:57;;;;;;;11.40;3.35;;;;;;;-145.50;100.00;65435.88;4985689;28;20147;-72
2023/08/03 02:46:24;;;;;;;9.35;3.55;;;;;;;-145.50;100.00;65435.88;4986654;28;20462;-72
2023/08/03 02:48:51;;;;;;;16.35;4.05;;;;;;;-145.50;100.00;65435.88;4981500;28;20058;-72
2023/08/03 02:51:17;;;;;;;13.18;3.75;;;;;;;-145.50;100.00;65435.88;4992245;28;20123;-71
2023/08/03 02:53:44;;;;;;;9.57;3.30;;;;;;;-145.50;100.00;65435.88;4995823;28;20799;-72
2023/08/03 02:56:10;;;;;;;10.52;4.18;;;;;;;-145.50;100.00;65435.88;4980714;28;20137;-73
2023/08/03 02:58:37;;;;;;;9.25;4.35;;;;;;;-145.50;100.00;65435.88;4994926;28;20060;-72
2023/08/03 03:01:04;;;;;;;9.50;4.30;;;;;;;-145.50;100.00;65435.88;5000642;28;20053;-72
2023/08/03 03:03:31;;;;;;;10.30;3.60;;;;;;;-145.50;100.00;65435.88;4986198;28;20053;-72
2023/08/03 03:05:59;;;;;;;12.38;4.25;;;;;;;-145.50;100.00;65435.88;4998040;28;20103;-73
2023/08/03 03:08:26;;;;;;;;;;;;;;;-145.50;100.00;65435.88;4989696;28;20046;-72
2023/08/03 03:10:52;;;;;;;13.93;4.80;;;;;;;-145.50;100.00;65435.88;4971859;28;20050;-74
2023/08/03 03:13:19;;;;;;;25.95;5.30;;;;;;;-145.50;100.00;65435.88;4971021;28;20072;-73
2023/08/03 03:15:45;;;;;;;9.77;3.95;;;;;;;-145.50;100.00;65435.88;4994270;28;20172;-73
2023/08/03 03:18:13;;;;;;;9.15;3.30;;;;;;;-145.50;100.00;65435.88;5004164;28;20060;-73
2023/08/03 03:20:39;;;;;;;9.52;4.15;;;;;;;-145.50;100.00;65435.88;4980796;28;20113;-73
2023/08/03 03:23:06;;;;;;;11.57;4.80;;;;;;;-145.50;100.00;65435.88;4988420;28;20106;-73
2023/08/03 03:25:32;;;;;;;10.85;5.18;;;;;;;-145.50;100.00;65435.88;4984541;28;20066;-73
2023/08/03 03:28:04;;;;;;;8.75;4.97;;;;;;;-145.50;100.00;65435.88;4999101;28;20053;-74
2023/08/03 03:30:31;;;;;;;11.95;4.93;;;;;;;-145.50;100.00;65435.88;4981808;28;20061;-75
2023/08/03 03:32:58;;;;;;;7.43;4.70;;;;;;;-145.50;100.00;65435.88;4992073;28;20052;-72
2023/08/03 03:35:24;;;;;;;7.05;3.70;;;;;;;-145.50;100.00;65435.88;5007747;28;20050;-71
2023/08/03 03:37:51;;;;;;;4.60;2.70;;;;;;;-145.50;100.00;65435.88;4992535;28;20698;-72
2023/08/03 03:40:17;;;;;;;3.22;2.28;;;;;;;-145.50;100.00;65435.88;4988710;28;20450;-72
2023/08/03 03:42:44;;;;;;;5.43;2.63;;;;;;;-145.50;100.00;65435.88;4981311;28;20439;-73
2023/08/03 03:45:10;;;;;;;7.95;3.17;;;;;;;-145.50;100.00;65435.88;4975838;28;20051;-72
2023/08/03 03:47:37;;;;;;;4.85;2.40;;;;;;;-145.50;100.00;65435.88;4988947;28;20046;-71
2023/08/03 03:50:04;;;;;;;8.57;2.72;;;;;;;-145.50;100.00;65435.88;4989100;28;20088;-72
2023/08/03 03:52:30;;;;;;;7.20;2.60;;;;;;;-145.50;100.00;65435.88;4999581;28;20137;-72
2023/08/03 03:54:57;;;;;;;3.85;2.22;;;;;;;-145.50;100.00;65435.88;4982503;28;20073;-72
2023/08/03 03:57:23;;;;;;;4.18;2.22;;;;;;;-145.50;100.00;65435.88;4969808;28;20054;-71
2023/08/03 03:59:50;;;;;;;3.90;1.80;;;;;;;-145.50;100.00;65435.88;4960631;28;20054;-71
2023/08/03 04:02:16;;;;;;;3.60;2.30;;;;;;;-145.50;100.00;65435.88;4977233;28;20058;-71
2023/08/03 04:04:43;;;;;;;2.67;2.05;;;;;;;-145.50;100.00;65435.88;4960871;28;20472;-72
2023/08/03 04:07:09;;;;;;;4.95;2.60;;;;;;;-145.50;100.00;65435.88;4975945;28;20062;-73
2023/08/03 04:09:36;;;;;;;5.82;3.13;;;;;;;-145.50;100.00;65435.88;4976803;28;20113;-72
2023/08/03 04:12:02;;;;;;;5.65;2.75;;;;;;;-145.50;100.00;65435.88;4991589;28;20587;-73
2023/08/03 04:14:29;;;;;;;8.68;3.80;;;;;;;-145.50;100.00;65435.88;4994259;28;20657;-72
2023/08/03 04:16:55;;;;;;;6.38;3.30;;;;;;;-145.50;100.00;65435.88;4952972;28;20060;-72
2023/08/03 04:19:22;;;;;;;8.38;4.15;;;;;;;-145.50;100.00;65435.88;4981481;28;20061;-72
2023/08/03 04:21:49;;;;;;;7.15;3.80;;;;;;;-145.50;100.00;65435.88;4948131;28;20050;-73
2023/08/03 04:24:15;;;;;;;9.30;4.45;;;;;;;-145.50;100.00;65435.88;4993868;28;20560;-72
2023/08/03 04:26:41;;;;;;;11.38;4.60;;;;;;;-145.50;100.00;65435.88;5000292;28;20086;-73
2023/08/03 04:29:08;;;;;;;12.48;4.25;;;;;;;-145.50;100.00;65435.88;4981249;28;20054;-73
2023/08/03 04:31:34;;;;;;;8.23;3.70;;;;;;;-145.50;100.00;65435.88;4983598;28;20061;-73
2023/08/03 04:34:01;;;;;;;8.20;3.97;;;;;;;-145.50;100.00;65435.88;4978716;28;20062;-73
2023/08/03 04:36:27;;;;;;;5.65;3.15;;;;;;;-145.50;100.00;65435.88;4977291;28;20085;-73
2023/08/03 04:38:54;;;;;;;9.45;3.40;;;;;;;-145.50;100.00;65435.88;4980606;28;20059;-72
2023/08/03 04:41:21;;;;;;;9.75;2.95;;;;;;;-145.50;100.00;65435.88;4976496;28;20415;-73
2023/08/03 04:43:48;;;;;;;8.23;2.60;;;;;;;-145.50;100.00;65435.88;4992039;28;20061;-73
2023/08/03 04:46:14;;;;;;;6.95;2.35;;;;;;;-145.50;100.00;65435.88;4976930;28;20057;-73
2023/08/03 04:48:41;;;;;;;12.35;2.92;;;;;;;-145.50;100.00;65435.88;4993284;28;20054;-73
2023/08/03 04:51:08;;;;;;;6.18;2.20;;;;;;;-145.50;100.00;65435.88;4986510;28;20109;-73
2023/08/03 04:53:35;;;;;;;8.10;2.17;;;;;;;-145.50;100.00;65435.88;4989287;28;20058;-74
2023/08/03 04:56:02;;;;;;;7.38;2.00;;;;;;;-145.50;100.00;65435.88;4948210;28;20069;-74
2023/08/03 04:58:28;;;;;;;12.82;2.05;;;;;;;-145.50;100.00;65435.88;4954367;28;20051;-74
2023/08/03 05:00:55;;;;;;;6.30;1.67;;;;;;;-145.50;100.00;65435.88;4966995;28;20124;-74
2023/08/03 05:03:22;;;;;;;8.63;1.95;;;;;;;-145.50;100.00;65435.88;4982385;28;20085;-74
2023/08/03 05:05:49;;;;;;;7.30;1.80;;;;;;;-145.50;100.00;65435.88;4964708;28;20051;-74
2023/08/03 05:08:15;;;;;;;10.63;2.20;;;;;;;-145.50;100.00;65435.88;4963627;28;20054;-73
2023/08/03 05:10:41;;;;;;;10.65;2.10;;;;;;;-145.50;100.00;65435.88;4984518;28;20047;-74
2023/08/03 05:13:08;;;;;;;10.55;1.95;;;;;;;-145.50;100.00;65435.88;4983273;28;20054;-75
2023/08/03 05:15:35;;;;;;;13.15;2.33;;;;;;;-145.50;100.00;65435.88;4987542;28;20050;-73
2023/08/03 05:18:01;;;;;;;7.32;1.70;;;;;;;-145.50;100.00;65435.88;4969348;28;20058;-73
2023/08/03 05:20:28;;;;;;;9.40;1.92;;;;;;;-145.50;100.00;65435.88;4961733;28;20456;-74
2023/08/03 05:22:54;;;;;;;9.77;1.83;;;;;;;-145.50;100.00;65435.88;4980058;28;20081;-73
2023/08/03 05:25:21;;;;;;;7.85;1.50;;;;;;;-145.50;100.00;65435.88;4961025;28;20474;-73
2023/08/03 05:27:48;;;;;;;12.48;1.85;;;;;;;-145.50;100.00;65435.88;4982643;28;20049;-74
2023/08/03 05:30:14;;;;;;;6.47;1.40;;;;;;;-145.50;100.00;65435.88;4972193;28;20069;-73
2023/08/03 05:32:43;;;;;;;6.93;1.40;;;;;;;-145.50;100.00;65435.88;4984659;28;20047;-73
2023/08/03 05:35:11;;;;;;;4.97;1.50;;;;;;;-145.50;100.00;65435.88;4978678;28;20080;-73
2023/08/03 05:37:38;;;;;;;5.32;1.45;;;;;;;-145.50;100.00;65435.88;4987530;28;20054;-72
2023/08/03 05:40:05;;;;;;;7.50;1.50;;;;;;;-145.50;100.00;65435.88;4987218;28;20164;-72
2023/08/03 05:42:37;;;;;;;9.90;1.90;;;;;;;-145.50;100.00;65435.88;4974569;28;20054;-73
2023/08/03 05:45:11;;;;;;;9.25;1.73;;;;;;;-145.50;100.00;65435.88;4973266;28;20137;-72
2023/08/03 05:47:38;;;;;;;8.23;1.50;;;;;;;-145.50;100.00;65435.88;4984243;28;20112;-73
2023/08/03 05:50:13;;;;;;;7.35;1.58;;;;;;;-145.50;100.00;65435.88;4983290;28;20459;-73
2023/08/03 05:52:40;;;;;;;8.60;1.73;;;;;;;-145.50;100.00;65435.88;4980494;28;20145;-73
2023/08/03 05:55:10;;;;;;;8.63;1.48;;;;;;;-145.50;100.00;65435.88;4966489;28;20129;-73
2023/08/03 05:57:37;;;;;;;7.63;1.58;;;;;;;-145.50;100.00;65435.88;5001973;28;20104;-73
2023/08/03 06:00:19;;;;;;;8.68;1.83;;;;;;;-145.50;100.00;65435.88;4981398;28;20355;-73
2023/08/03 06:02:46;;;;;;;10.43;2.28;;;;;;;-145.50;100.00;65435.88;4981759;28;20403;-73
2023/08/03 06:05:38;;;;;;;9.18;1.92;;;;;;;-145.50;100.00;65435.88;4969127;28;20137;-73
2023/08/03 06:08:12;;;;;;;5.38;1.45;;;;;;;-145.50;100.00;65435.88;4984295;28;20050;-73
2023/08/03 06:10:39;;;;;;;7.55;1.60;;;;;;;-145.50;100.00;65435.88;4971728;28;20540;-73
2023/08/03 06:13:10;;;;;;;8.88;1.65;;;;;;;-145.50;100.00;65435.88;4980844;28;20062;-73
2023/08/03 06:15:37;;;;;;;5.32;1.58;;;;;;;-145.50;100.00;65435.88;4986910;28;20050;-73
2023/08/03 06:18:09;;;;;;;7.70;1.70;;;;;;;-145.50;100.00;65435.88;4985260;28;20110;-74
2023/08/03 06:20:40;;;;;;;5.07;1.63;;;;;;;-145.50;100.00;65435.88;4960867;28;20389;-74
2023/08/03 06:23:11;;;;;;;7.70;1.63;;;;;;;-145.50;100.00;65435.88;4972352;28;20137;-74
2023/08/03 06:25:38;;;;;;;5.53;1.88;;;;;;;-145.50;100.00;65435.88;4989501;28;20058;-74
2023/08/03 06:28:05;;;;;;;5.90;1.70;;;;;;;-145.50;100.00;65435.88;4968905;28;20149;-74
2023/08/03 06:30:31;;;;;;;5.00;1.48;;;;;;;-145.50;100.00;65435.88;4999087;28;20076;-73
2023/08/03 06:32:58;;;;;;;9.60;1.52;;;;;;;-145.50;100.00;65435.88;4991140;28;20213;-73
2023/08/03 06:35:37;;;;;;;5.15;1.50;;;;;;;-145.50;100.00;65435.88;4970111;28;20145;-73
2023/08/03 06:38:04;;;;;;;13.00;2.00;;;;;;;-145.50;100.00;65435.88;4957984;28;20454;-73
2023/08/03 06:40:32;;;;;;;9.85;1.80;;;;;;;-145.50;100.00;65435.88;4974399;28;20055;-73
2023/08/03 06:43:01;;;;;;;10.60;1.77;;;;;;;-145.50;100.00;65435.88;4987803;28;20137;-74
2023/08/03 06:45:32;;;;;;;8.55;1.55;;;;;;;-145.50;100.00;65435.88;4976020;28;20082;-73
2023/08/03 06:47:59;;;;;;;6.20;1.58;;;;;;;-145.50;100.00;65435.88;4984998;28;20069;-73
2023/08/03 06:50:29;;;;;;;9.47;1.80;;;;;;;-145.50;100.00;65435.88;4978771;28;20089;-74
2023/08/03 06:52:57;;;;;;;11.50;1.85;;;;;;;-145.50;100.00;65435.88;4973086;28;20241;-73
2023/08/03 06:55:23;;;;;;;7.77;2.00;;;;;;;-145.50;100.00;65435.88;4984220;28;20515;-73
2023/08/03 06:57:50;;;;;;;9.13;2.00;;;;;;;-145.50;100.00;65435.88;4981839;28;20676;-73
2023/08/03 07:00:17;;;;;;;6.30;1.60;;;;;;;-145.50;100.00;65435.88;5001407;28;20049;-73
2023/08/03 07:02:47;;;;;;;4.45;1.90;;;;;;;-145.50;100.00;65435.88;4984183;28;20262;-73
2023/08/03 07:05:14;;;;;;;11.30;1.88;;;;;;;-145.50;100.00;65435.88;4969212;28;20049;-73
2023/08/03 07:07:41;;;;;;;10.45;1.90;;;;;;;-145.50;100.00;65435.88;4994993;28;20062;-74
2023/08/03 07:10:08;;;;;;;9.45;1.60;;;;;;;-145.50;100.00;65435.88;4968742;28;20489;-73
2023/08/03 07:12:35;;;;;;;6.13;1.60;;;;;;;-145.50;100.00;65435.88;4968952;28;20480;-73
2023/08/03 07:15:02;;;;;;;10.48;1.42;;;;;;;-145.50;100.00;65435.88;4952231;28;20046;-73
2023/08/03 07:17:29;;;;;;;11.07;1.58;;;;;;;-145.50;100.00;65435.88;4976799;28;20078;-73
2023/08/03 07:19:56;;;;;;;11.15;1.63;;;;;;;-145.50;100.00;65435.88;4982164;28;20054;-73
2023/08/03 07:22:23;;;;;;;6.55;1.42;;;;;;;-145.50;100.00;65435.88;4992187;28;20061;-74
2023/08/03 07:24:50;;;;;;;7.47;1.60;;;;;;;-145.50;100.00;65435.88;4985474;28;20264;-74
2023/08/03 07:27:17;;;;;;;10.18;1.80;;;;;;;-145.50;100.00;65435.88;4979276;28;20157;-74
2023/08/03 07:29:44;;;;;;;10.88;1.98;;;;;;;-145.50;100.00;65435.88;4975864;28;20451;-73
2023/08/03 07:32:12;;;;;;;5.10;1.20;;;;;;;-145.50;100.00;65435.88;4976835;28;20082;-74
2023/08/03 07:34:39;;;;;;;6.95;1.35;;;;;;;-145.50;100.00;65435.88;4989317;28;20058;-74
2023/08/03 07:37:05;;;;;;;8.63;2.13;;;;;;;-145.50;100.00;65435.88;4970828;28;20050;-73
2023/08/03 07:39:32;;;;;;;5.80;1.30;;;;;;;-145.50;100.00;65435.88;4996242;28;20050;-74
2023/08/03 07:41:59;;;;;;;9.45;2.38;;;;;;;-145.50;100.00;65435.88;4977199;28;20515;-74
2023/08/03 07:44:25;;;;;;;8.23;1.50;;;;;;;-145.50;100.00;65435.88;4971599;28;20378;-73
2023/08/03 07:47:12;;;;;;;7.88;1.77;;;;;;;-145.50;100.00;65435.88;4980678;28;20062;-73
2023/08/03 07:49:39;;;;;;;6.65;2.17;;;;;;;-145.50;100.00;65435.88;4972182;28;20145;-74
2023/08/03 07:52:06;;;;;;;9.43;1.90;;;;;;;-145.50;100.00;65435.88;4990556;28;20050;-74
2023/08/03 07:54:32;;;;;;;5.60;1.35;;;;;;;-145.50;100.00;65435.88;4965991;28;20069;-73
2023/08/03 07:56:59;;;;;;;8.93;1.98;;;;;;;-145.50;100.00;65435.88;4976019;28;20138;-73
2023/08/03 07:59:25;;;;;;;8.00;1.52;;;;;;;-145.50;100.00;65435.88;4957145;28;20047;-74
2023/08/03 08:01:52;;;;;;;6.50;1.75;;;;;;;-145.50;100.00;65435.88;4968969;28;20488;-74
2023/08/03 08:04:18;;;;;;;5.00;1.25;;;;;;;-145.50;100.00;65435.88;4990266;28;20074;-75
2023/08/03 08:06:45;;;;;;;7.15;1.85;;;;;;;-145.50;100.00;65435.88;4971269;28;20061;-74
2023/08/03 08:09:12;;;;;;;7.22;1.58;;;;;;;-145.50;100.00;65435.88;4984777;28;20058;-75
2023/08/03 08:11:38;;;;;;;7.15;1.88;;;;;;;-145.50;100.00;65435.88;4981428;28;20050;-74
2023/08/03 08:14:05;;;;;;;7.13;1.90;;;;;;;-145.50;100.00;65435.88;4956441;28;20046;-74
2023/08/03 08:16:31;;;;;;;11.68;1.83;;;;;;;-145.50;100.00;65435.88;4976097;28;20042;-72
2023/08/03 08:18:58;;;;;;;5.35;1.50;;;;;;;-145.50;100.00;65435.88;4969835;28;20054;-72
2023/08/03 08:21:25;;;;;;;7.30;1.85;;;;;;;-145.50;100.00;65435.88;4988514;28;20073;-72
2023/08/03 08:23:51;;;;;;;5.32;1.88;;;;;;;-145.50;100.00;65435.88;4983713;28;20121;-74
2023/08/03 08:26:19;;;;;;;5.10;1.90;;;;;;;-145.50;100.00;65435.88;4999843;28;20081;-75
2023/08/03 08:28:47;;;;;;;9.40;1.85;;;;;;;-145.50;100.00;65435.88;5010586;28;20050;-72
2023/08/03 08:31:30;;;;;;;8.23;1.70;;;;;;;-145.50;100.00;65435.88;5016797;28;20061;-74
2023/08/03 08:33:59;;;;;;;8.32;2.13;;;;;;;-145.50;100.00;65435.88;4996894;28;20341;-72
2023/08/03 08:36:26;;;;;;;10.93;2.53;;;;;;;-145.50;100.00;65435.88;4994714;28;20056;-74
2023/08/03 08:38:53;;;;;;;4.75;1.83;;;;;;;-145.50;100.00;65435.88;5009802;28;20052;-74
2023/08/03 08:41:19;;;;;;;9.50;2.15;;;;;;;-145.50;100.00;65435.88;4985314;28;20081;-74
2023/08/03 08:43:46;;;;;;;10.15;2.50;;;;;;;-145.50;100.00;65435.88;4969529;28;20066;-72
2023/08/03 08:46:13;;;;;;;7.85;2.00;;;;;;;-145.50;100.00;65435.88;4982327;28;20082;-72
2023/08/03 08:48:39;;;;;;;7.30;2.30;;;;;;;-145.50;100.00;65435.88;4974887;28;20054;-73
2023/08/03 08:51:10;;;;;;;5.93;2.40;;;;;;;-145.50;100.00;65435.88;4959303;28;20159;-72
2023/08/03 08:53:37;;;;;;;11.75;2.50;;;;;;;-145.50;100.00;65435.88;4972027;28;20054;-72
2023/08/03 08:56:07;;;;;;;8.32;2.55;;;;;;;-145.50;100.00;65435.88;4982192;28;20335;-73
2023/08/03 08:58:53;;;;;;;11.18;3.30;;;;;;;-145.50;100.00;65435.88;4970110;28;20072;-73
2023/08/03 09:01:23;;;;;;;7.15;2.55;;;;;;;-145.50;100.00;65435.88;4995339;28;20054;-73
2023/08/03 09:03:56;;;;;;;10.80;2.97;;;;;;;-145.50;100.00;65435.88;4969774;28;20116;-74
2023/08/03 09:06:26;;;;;;;10.38;3.63;;;;;;;-145.50;100.00;65435.88;4984709;28;20050;-73
2023/08/03 09:08:56;;;;;;;11.17;3.20;;;;;;;-145.50;100.00;65435.88;4961752;28;20514;-74
2023/08/03 09:11:39;;;;;;;8.60;3.60;;;;;;;-145.50;100.00;65435.88;4985586;28;20130;-75
2023/08/03 09:14:08;;;;;;;5.68;2.03;;;;;;;-145.50;100.00;65435.88;4980881;28;20165;-75
2023/08/03 09:16:35;;;;;;;7.53;2.95;;;;;;;-145.50;100.00;65435.88;4982983;28;20148;-74
2023/08/03 09:19:02;;;;;;;4.78;2.08;;;;;;;-145.50;100.00;65435.88;4999596;28;20050;-74
2023/08/03 09:21:29;;;;;;;6.88;2.30;;;;;;;-145.50;100.00;65435.88;4991244;28;20462;-75
2023/08/03 09:23:59;;;;;;;3.25;1.95;;;;;;;-145.50;100.00;65435.88;4987442;28;20062;-74
2023/08/03 09:26:29;;;;;;;6.30;2.75;;;;;;;-145.50;100.00;65435.88;4970275;28;20058;-74
2023/08/03 09:28:58;;;;;;;6.50;2.97;;;;;;;-145.50;100.00;65435.88;4991084;28;20054;-74
2023/08/03 09:31:29;;;;;;;6.95;2.88;;;;;;;-145.50;100.00;65435.88;4973699;28;20363;-74
2023/08/03 09:34:00;;;;;;;6.32;3.35;;;;;;;-145.50;100.00;65435.88;4972303;28;20182;-74
2023/08/03 09:36:28;;;;;;;10.00;3.90;;;;;;;-145.50;100.00;65435.88;4986590;28;20252;-74
2023/08/03 09:39:11;;;;;;;10.90;3.70;;;;;;;-145.50;100.00;65435.88;4963167;28;20058;-73
2023/08/03 09:41:41;;;;;;;10.75;3.80;;;;;;;-145.50;100.00;65435.88;4974779;28;20137;-73
2023/08/03 09:44:13;;;;;;;7.03;3.47;;;;;;;-145.50;100.00;65435.88;4967359;28;20121;-74
2023/08/03 09:46:40;;;;;;;9.82;2.92;;;;;;;-145.50;100.00;65435.88;4998608;28;20056;-73
2023/08/03 09:49:07;;;;;;;8.98;2.80;;;;;;;-145.50;100.00;65435.88;4955522;28;20446;-73
2023/08/03 09:51:43;;;;;;;8.18;3.03;;;;;;;-145.50;100.00;65435.88;4978368;28;20403;-74
2023/08/03 09:54:27;;;;;;;8.05;2.78;;;;;;;-145.50;100.00;65435.88;4975492;28;20052;-73
2023/08/03 09:56:58;;;;;;;7.68;2.80;;;;;;;-145.50;100.00;65435.88;4968637;28;20180;-73
2023/08/03 09:59:33;;;;;;;9.90;2.80;;;;;;;-145.50;100.00;65435.88;4977608;28;20046;-73
2023/08/03 10:02:01;;;;;;;7.43;2.75;;;;;;;-145.50;100.00;65435.88;4980094;28;20139;-74
2023/08/03 10:04:32;;;;;;;7.22;2.38;;;;;;;-145.50;100.00;65435.88;4976815;28;20058;-74
2023/08/03 10:07:05;;;;;;;5.97;1.90;;;;;;;-145.50;100.00;65435.88;4965448;28;20097;-74
2023/08/03 10:09:45;;;;;;;7.28;2.45;;;;;;;-145.50;100.00;65435.88;4963024;28;20508;-73
2023/08/03 10:12:21;;;;;;;7.75;2.05;;;;;;;-145.50;100.00;65435.88;4981182;28;20060;-74
2023/08/03 10:14:51;;;;;;;6.88;2.47;;;;;;;-145.50;100.00;65435.88;4986020;28;20574;-74
2023/08/03 10:17:19;;;;;;;8.07;2.28;;;;;;;-145.50;100.00;65435.88;4996348;28;20060;-74
2023/08/03 10:19:46;;;;;;;8.25;2.22;;;;;;;-145.50;100.00;65435.88;4967012;28;20055;-74
2023/08/03 10:22:13;;;;;;;5.75;1.70;;;;;;;-145.50;100.00;65435.88;4987528;28;20066;-75
2023/08/03 10:24:39;;;;;;;7.68;1.70;;;;;;;-145.50;100.00;65435.88;4982094;28;20137;-73
2023/08/03 10:27:19;;;;;;;7.75;3.13;;;;;;;-145.50;100.00;65435.88;4999384;28;20065;-74
2023/08/03 10:29:53;;;;;;;5.47;1.90;;;;;;;-145.50;100.00;65435.88;4994689;28;20061;-74
2023/08/03 10:32:22;;;;;;;6.63;1.92;;;;;;;-145.50;100.00;65435.88;4969774;28;20435;-74
2023/08/03 10:34:58;;;;;;;4.88;1.70;;;;;;;-145.50;100.00;65435.88;4966694;28;20133;-74
2023/08/03 10:37:25;;;;;;;7.78;2.20;;;;;;;-145.50;100.00;65435.88;4981806;28;20337;-74
2023/08/03 10:39:54;;;;;;;3.92;1.77;;;;;;;-145.50;100.00;65435.88;4956380;28;20450;-74
2023/08/03 10:42:23;;;;;;;4.55;1.65;;;;;;;-145.50;100.00;65435.88;4984352;28;20054;-74
2023/08/03 10:44:50;;;;;;;;;;;;;;;-145.50;100.00;65435.88;4975216;28;20132;-74
2023/08/03 10:47:28;;;;;;;2.50;1.10;;;;;;;-145.50;100.00;65435.88;4976244;28;19929;-74
2023/08/03 10:49:57;;;;;;;3.50;1.20;;;;;;;-145.50;100.00;65435.88;4974239;28;20061;-75
2023/08/03 10:52:28;;;;;;;5.30;1.30;;;;;;;-145.50;100.00;65435.88;4962952;28;20050;-76
2023/08/03 10:54:56;;;;;;;4.65;2.00;;;;;;;-145.50;100.00;65435.88;4985486;28;20256;-76
2023/08/03 10:57:29;;;;;;;4.50;1.77;;;;;;;-145.50;100.00;65435.88;4979927;28;20116;-74
2023/08/03 11:00:02;;;;;;;4.45;1.58;;;;;;;-145.50;100.00;65435.88;4986089;28;20109;-74
2023/08/03 11:02:31;;;;;;;4.30;1.50;;;;;;;-145.50;100.00;65435.88;4985565;28;20109;-75
2023/08/03 11:05:04;;;;;;;4.97;1.75;;;;;;;-145.50;100.00;65435.88;4983591;28;20129;-75
2023/08/03 11:07:43;;;;;;;4.82;1.40;;;;;;;-145.50;100.00;65435.88;4974874;28;20055;-75
2023/08/03 11:10:15;;;;;;;6.35;2.10;;;;;;;-145.50;100.00;65435.88;4973816;28;20070;-74
2023/08/03 11:12:44;;;;;;;5.15;1.50;;;;;;;-145.50;100.00;65435.88;4976934;28;20047;-74